Observation data for Lamesa on 01/12/2018      Previous  Date  Next       Current Mesonet Observations  Soil Data  Daily Summary Page  Observations in Plain Language
KLES 120600Z 02001KT M02/M11 A3029 RMK A01 T10181110  RH  050%=      5-min Rain = 0
KLES 120605Z 04002KT M02/M11 A3029 RMK A01 T10231112  RH  051%=      5-min Rain = 0
KLES 120610Z 03003KT M02/M11 A3029 RMK A01 T10231107  RH  053%=      5-min Rain = 0
KLES 120615Z 04003KT M03/M11 A3029 RMK A01 T10251107  RH  054%=      5-min Rain = 0
KLES 120620Z 05002KT M03/M11 A3029 RMK A01 T10301109  RH  055%=      5-min Rain = 0
KLES 120625Z 05002KT M03/M11 A3029 RMK A01 T10331109  RH  056%=      5-min Rain = 0
KLES 120630Z 06003KT M04/M11 A3029 RMK A01 T10351108  RH  058%=      5-min Rain = 0
KLES 120635Z 06002KT M04/M11 A3029 RMK A01 T10351107  RH  058%=      5-min Rain = 0
KLES 120640Z 06001KT M03/M10 A3029 RMK A01 T10321104  RH  058%=      5-min Rain = 0
KLES 120645Z 06000KT M03/M10 A3029 RMK A01 T10271102  RH  057%=      5-min Rain = 0
KLES 120650Z 00000KT M03/M10 A3029 RMK A01 T10251104  RH  055%=      5-min Rain = 0
KLES 120655Z 00000KT M03/M10 A3029 RMK A01 T10271104  RH  056%=      5-min Rain = 0
KLES 120700Z 33000KT M03/M11 A3028 RMK A01 T10291106  RH  056%=      5-min Rain = 0
KLES 120705Z 27001KT M03/M11 A3028 RMK A01 T10311107  RH  057%=      5-min Rain = 0
KLES 120710Z 26001KT M03/M11 A3028 RMK A01 T10331106  RH  058%=      5-min Rain = 0
KLES 120715Z 25001KT M03/M10 A3028 RMK A01 T10341104  RH  059%=      5-min Rain = 0
KLES 120720Z 26001KT M03/M10 A3028 RMK A01 T10341103  RH  060%=      5-min Rain = 0
KLES 120725Z 25003KT M04/M10 A3028 RMK A01 T10351104  RH  059%=      5-min Rain = 0
KLES 120730Z 27002KT M03/M10 A3027 RMK A01 T10331104  RH  059%=      5-min Rain = 0
KLES 120735Z 27003KT M04/M11 A3027 RMK A01 T10361107  RH  058%=      5-min Rain = 0
KLES 120740Z 27003KT M04/M11 A3027 RMK A01 T10391108  RH  059%=      5-min Rain = 0
KLES 120745Z 27003KT M04/M11 A3027 RMK A01 T10391107  RH  060%=      5-min Rain = 0
KLES 120750Z 27003KT M04/M11 A3027 RMK A01 T10381107  RH  060%=      5-min Rain = 0
KLES 120755Z 27003KT M04/M11 A3027 RMK A01 T10371109  RH  058%=      5-min Rain = 0
KLES 120800Z 28003KT M04/M11 A3027 RMK A01 T10411111  RH  059%=      5-min Rain = 0
KLES 120805Z 30003KT M05/M11 A3027 RMK A01 T10451111  RH  060%=      5-min Rain = 0
KLES 120810Z 30002KT M05/M11 A3027 RMK A01 T10451110  RH  061%=      5-min Rain = 0
KLES 120815Z 30002KT M05/M11 A3027 RMK A01 T10461110  RH  062%=      5-min Rain = 0
KLES 120820Z 30002KT M05/M11 A3027 RMK A01 T10471108  RH  063%=      5-min Rain = 0
KLES 120825Z 29002KT M05/M11 A3027 RMK A01 T10451105  RH  064%=      5-min Rain = 0
KLES 120830Z 29002KT M04/M10 A3027 RMK A01 T10441103  RH  064%=      5-min Rain = 0
KLES 120835Z 28003KT M04/M10 A3027 RMK A01 T10391097  RH  065%=      5-min Rain = 0
KLES 120840Z 29003KT M04/M10 A3027 RMK A01 T10351100  RH  062%=      5-min Rain = 0
KLES 120845Z 28004KT M03/M10 A3028 RMK A01 T10341099  RH  061%=      5-min Rain = 0
KLES 120850Z 28004KT M03/M10 A3028 RMK A01 T10341102  RH  060%=      5-min Rain = 0
KLES 120855Z 28004KT M04/M10 A3027 RMK A01 T10351103  RH  060%=      5-min Rain = 0
KLES 120900Z 27004KT M04/M11 A3027 RMK A01 T10391105  RH  061%=      5-min Rain = 0
KLES 120905Z 27004KT M04/M10 A3027 RMK A01 T10401103  RH  062%=      5-min Rain = 0
KLES 120910Z 27004KT M04/M10 A3027 RMK A01 T10401103  RH  062%=      5-min Rain = 0
KLES 120915Z 28004KT M04/M10 A3027 RMK A01 T10411103  RH  063%=      5-min Rain = 0
KLES 120920Z 28004KT M04/M10 A3027 RMK A01 T10391102  RH  063%=      5-min Rain = 0
KLES 120925Z 28004KT M04/M10 A3027 RMK A01 T10401104  RH  062%=      5-min Rain = 0
KLES 120930Z 29005KT M04/M10 A3027 RMK A01 T10411102  RH  063%=      5-min Rain = 0
KLES 120935Z 29004KT M04/M10 A3027 RMK A01 T10391098  RH  064%=      5-min Rain = 0
KLES 120940Z 29003KT M04/M10 A3026 RMK A01 T10391098  RH  064%=      5-min Rain = 0
KLES 120945Z 28003KT M04/M10 A3027 RMK A01 T10421101  RH  064%=      5-min Rain = 0
KLES 120950Z 27004KT M04/M10 A3026 RMK A01 T10441101  RH  065%=      5-min Rain = 0
KLES 120955Z 27002KT M05/M10 A3026 RMK A01 T10461102  RH  066%=      5-min Rain = 0
KLES 121000Z 26002KT M05/M10 A3026 RMK A01 T10501104  RH  067%=      5-min Rain = 0
KLES 121005Z 25001KT M05/M11 A3026 RMK A01 T10541105  RH  068%=      5-min Rain = 0
KLES 121010Z 23002KT M06/M10 A3025 RMK A01 T10551102  RH  071%=      5-min Rain = 0
KLES 121015Z 20002KT M06/M10 A3025 RMK A01 T10551100  RH  072%=      5-min Rain = 0
KLES 121020Z 19002KT M06/M10 A3025 RMK A01 T10581103  RH  071%=      5-min Rain = 0
KLES 121025Z 18002KT M06/M11 A3025 RMK A01 T10591105  RH  071%=      5-min Rain = 0
KLES 121030Z 13001KT M06/M11 A3025 RMK A01 T10601107  RH  071%=      5-min Rain = 0
KLES 121035Z 10002KT M06/M11 A3025 RMK A01 T10621106  RH  072%=      5-min Rain = 0
KLES 121040Z 12002KT M06/M11 A3025 RMK A01 T10621107  RH  072%=      5-min Rain = 0
KLES 121045Z 11001KT M06/M11 A3026 RMK A01 T10631108  RH  072%=      5-min Rain = 0
KLES 121050Z 15003KT M06/M11 A3026 RMK A01 T10631107  RH  072%=      5-min Rain = 0
KLES 121055Z 15004KT M06/M11 A3025 RMK A01 T10621106  RH  072%=      5-min Rain = 0
KLES 121100Z 13003KT M06/M11 A3026 RMK A01 T10591106  RH  071%=      5-min Rain = 0
KLES 121105Z 12004KT M06/M11 A3026 RMK A01 T10591108  RH  069%=      5-min Rain = 0
KLES 121110Z 12005KT M06/M11 A3026 RMK A01 T10611110  RH  069%=      5-min Rain = 0
KLES 121115Z 13005KT M06/M11 A3025 RMK A01 T10621110  RH  070%=      5-min Rain = 0
KLES 121120Z 12004KT M06/M11 A3025 RMK A01 T10611109  RH  070%=      5-min Rain = 0
KLES 121125Z 13005KT M06/M11 A3025 RMK A01 T10581107  RH  069%=      5-min Rain = 0
KLES 121130Z 14006KT M06/M11 A3025 RMK A01 T10551106  RH  068%=      5-min Rain = 0
KLES 121135Z 14006KT M05/M11 A3025 RMK A01 T10511105  RH  067%=      5-min Rain = 0
KLES 121140Z 15005KT M05/M10 A3025 RMK A01 T10471103  RH  066%=      5-min Rain = 0
KLES 121145Z 16006KT M05/M10 A3025 RMK A01 T10451101  RH  066%=      5-min Rain = 0
KLES 121150Z 16005KT M04/M10 A3025 RMK A01 T10441103  RH  064%=      5-min Rain = 0
KLES 121155Z 13004KT M05/M11 A3026 RMK A01 T10501108  RH  065%=      5-min Rain = 0
KLES 121200Z 15005KT M05/M11 A3026 RMK A01 T10531107  RH  067%=      5-min Rain = 0
KLES 121205Z 14004KT M05/M11 A3026 RMK A01 T10521106  RH  066%=      5-min Rain = 0
KLES 121210Z 15004KT M05/M11 A3026 RMK A01 T10511105  RH  066%=      5-min Rain = 0
KLES 121215Z 14004KT M05/M10 A3026 RMK A01 T10501104  RH  066%=      5-min Rain = 0
KLES 121220Z 15004KT M05/M10 A3026 RMK A01 T10491104  RH  066%=      5-min Rain = 0
KLES 121225Z 15005KT M05/M10 A3026 RMK A01 T10491104  RH  066%=      5-min Rain = 0
KLES 121230Z 15004KT M05/M10 A3026 RMK A01 T10491103  RH  067%=      5-min Rain = 0
KLES 121235Z 15005KT M05/M11 A3026 RMK A01 T10511106  RH  066%=      5-min Rain = 0
KLES 121240Z 15004KT M05/M11 A3026 RMK A01 T10531105  RH  068%=      5-min Rain = 0
KLES 121245Z 16005KT M05/M10 A3026 RMK A01 T10531102  RH  069%=      5-min Rain = 0
KLES 121250Z 16006KT M05/M10 A3026 RMK A01 T10511100  RH  070%=      5-min Rain = 0
KLES 121255Z 15004KT M05/M10 A3026 RMK A01 T10511101  RH  069%=      5-min Rain = 0
KLES 121300Z 14003KT M06/M11 A3026 RMK A01 T10561106  RH  069%=      5-min Rain = 0
KLES 121305Z 14003KT M06/M11 A3026 RMK A01 T10561105  RH  069%=      5-min Rain = 0
KLES 121310Z 15003KT M06/M11 A3026 RMK A01 T10561105  RH  070%=      5-min Rain = 0
KLES 121315Z 16004KT M06/M11 A3026 RMK A01 T10571105  RH  070%=      5-min Rain = 0
KLES 121320Z 15003KT M06/M11 A3027 RMK A01 T10591106  RH  071%=      5-min Rain = 0
KLES 121325Z 12002KT M06/M11 A3027 RMK A01 T10611106  RH  071%=      5-min Rain = 0
KLES 121330Z 14003KT M06/M11 A3027 RMK A01 T10621106  RH  072%=      5-min Rain = 0
KLES 121335Z 14003KT M06/M11 A3027 RMK A01 T10631107  RH  072%=      5-min Rain = 0
KLES 121340Z 13002KT M06/M11 A3027 RMK A01 T10631107  RH  072%=      5-min Rain = 0
KLES 121345Z 14003KT M06/M11 A3027 RMK A01 T10641109  RH  072%=      5-min Rain = 0
KLES 121350Z 13002KT M06/M11 A3027 RMK A01 T10641106  RH  073%=      5-min Rain = 0
KLES 121355Z 13002KT M07/M11 A3027 RMK A01 T10651108  RH  073%=      5-min Rain = 0
KLES 121400Z 14001KT M07/M11 A3027 RMK A01 T10651106  RH  073%=      5-min Rain = 0
KLES 121405Z 12002KT M06/M10 A3027 RMK A01 T10621102  RH  074%=      5-min Rain = 0
KLES 121410Z 14003KT M06/M10 A3027 RMK A01 T10571098  RH  074%=      5-min Rain = 0
KLES 121415Z 13002KT M05/M10 A3028 RMK A01 T10521098  RH  071%=      5-min Rain = 0
KLES 121420Z 15002KT M05/M10 A3028 RMK A01 T10491098  RH  070%=      5-min Rain = 0
KLES 121425Z 16003KT M04/M10 A3028 RMK A01 T10441095  RH  068%=      5-min Rain = 0
KLES 121430Z 14003KT M04/M10 A3028 RMK A01 T10411096  RH  066%=      5-min Rain = 0
KLES 121435Z 14004KT M04/M10 A3028 RMK A01 T10401096  RH  066%=      5-min Rain = 0
KLES 121440Z 15004KT M04/M09 A3027 RMK A01 T10371093  RH  066%=      5-min Rain = 0
KLES 121445Z 14004KT M03/M09 A3027 RMK A01 T10311091  RH  064%=      5-min Rain = 0
KLES 121450Z 13004KT M03/M09 A3027 RMK A01 T10311091  RH  064%=      5-min Rain = 0
KLES 121455Z 14005KT M02/M09 A3027 RMK A01 T10231085  RH  064%=      5-min Rain = 0
KLES 121500Z 15006KT M02/M09 A3027 RMK A01 T10151085  RH  060%=      5-min Rain = 0
KLES 121505Z 15008KT M01/M09 A3027 RMK A01 T10121087  RH  057%=      5-min Rain = 0
KLES 121510Z 15007KT M01/M09 A3027 RMK A01 T10101087  RH  057%=      5-min Rain = 0
KLES 121515Z 15007KT M01/M09 A3027 RMK A01 T10071086  RH  056%=      5-min Rain = 0
KLES 121520Z 15007KT M00/M09 A3027 RMK A01 T10041085  RH  055%=      5-min Rain = 0
KLES 121525Z 15007KT 00/08 A3026 RMK A01 T00-00-84  RH  054%=      5-min Rain = 0
KLES 121530Z 16009KT 00/M09 A3027 RMK A01 T00021086  RH  052%=      5-min Rain = 0
KLES 121535Z 14009KT 00/M09 A3027 RMK A01 T00041087  RH  051%=      5-min Rain = 0
KLES 121540Z 15009KT 01/M09 A3027 RMK A01 T00061088  RH  050%=      5-min Rain = 0
KLES 121545Z 15009KT 01/M09 A3027 RMK A01 T00081090  RH  049%=      5-min Rain = 0
KLES 121550Z 14009KT 01/M09 A3027 RMK A01 T00081091  RH  048%=      5-min Rain = 0
KLES 121555Z 14009KT 01/M09 A3027 RMK A01 T00091090  RH  048%=      5-min Rain = 0
KLES 121600Z 14010KT 01/M09 A3027 RMK A01 T00131091  RH  046%=      5-min Rain = 0
KLES 121605Z 13009KT 01/M09 A3027 RMK A01 T00141091  RH  046%=      5-min Rain = 0
KLES 121610Z 13008KT 02/M09 A3027 RMK A01 T00171091  RH  045%=      5-min Rain = 0
KLES 121615Z 14009KT 02/M09 A3027 RMK A01 T00191089  RH  045%=      5-min Rain = 0
KLES 121620Z 14009KT 02/M09 A3027 RMK A01 T00221088  RH  044%=      5-min Rain = 0
KLES 121625Z 13009KT 02/M09 A3028 RMK A01 T00241089  RH  044%=      5-min Rain = 0
KLES 121630Z 14010KT 03/M09 A3028 RMK A01 T00251088  RH  043%=      5-min Rain = 0
KLES 121635Z 14010KT 03/M09 A3028 RMK A01 T00281088  RH  043%=      5-min Rain = 0
KLES 121640Z 13009KT 03/M09 A3028 RMK A01 T00311087  RH  042%=      5-min Rain = 0
KLES 121645Z 13009KT 03/M09 A3027 RMK A01 T00321085  RH  042%=      5-min Rain = 0
KLES 121650Z 14010KT 04/M09 A3027 RMK A01 T00351086  RH  041%=      5-min Rain = 0
KLES 121655Z 14011KT 04/M09 A3027 RMK A01 T00361087  RH  041%=      5-min Rain = 0
KLES 121700Z 15011KT 04/M09 A3027 RMK A01 T00371089  RH  040%=      5-min Rain = 0
KLES 121705Z 14011KT 04/M09 A3027 RMK A01 T00361090  RH  040%=      5-min Rain = 0
KLES 121710Z 15010KT 04/M09 A3027 RMK A01 T00391090  RH  039%=      5-min Rain = 0
KLES 121715Z 15010KT 04/M09 A3026 RMK A01 T00411092  RH  038%=      5-min Rain = 0
KLES 121720Z 14010KT 04/M09 A3026 RMK A01 T00431091  RH  038%=      5-min Rain = 0
KLES 121725Z 15011KT 05/M09 A3026 RMK A01 T00461092  RH  036%=      5-min Rain = 0
KLES 121730Z 15011KT 05/M09 A3026 RMK A01 T00481094  RH  035%=      5-min Rain = 0
KLES 121735Z 15012KT 05/M10 A3026 RMK A01 T00511100  RH  033%=      5-min Rain = 0
KLES 121740Z 15011KT 05/M10 A3025 RMK A01 T00531104  RH  031%=      5-min Rain = 0
KLES 121745Z 16012KT 05/M11 A3025 RMK A01 T00531105  RH  031%=      5-min Rain = 0
KLES 121750Z 14011G16KT 05/M10 A3024 RMK A01 T00521104  RH  032%=      5-min Rain = 0
KLES 121755Z 15011KT 06/M10 A3024 RMK A01 T00571103  RH  031%=      5-min Rain = 0
KLES 121800Z 15011G16KT 06/M10 A3024 RMK A01 T00591104  RH  030%=      5-min Rain = 0
KLES 121805Z 15013KT 06/M11 A3023 RMK A01 T00601106  RH  030%=      5-min Rain = 0
KLES 121810Z 14011KT 06/M10 A3023 RMK A01 T00611103  RH  030%=      5-min Rain = 0
KLES 121815Z 15012G17KT 06/M10 A3023 RMK A01 T00611104  RH  030%=      5-min Rain = 0
KLES 121820Z 15009KT 07/M10 A3022 RMK A01 T00681100  RH  029%=      5-min Rain = 0
KLES 121825Z 16011G18KT 07/M10 A3022 RMK A01 T00701101  RH  029%=      5-min Rain = 0
KLES 121830Z 16011KT 07/M11 A3022 RMK A01 T00691105  RH  028%=      5-min Rain = 0
KLES 121835Z 17013KT 07/M11 A3021 RMK A01 T00701105  RH  028%=      5-min Rain = 0
KLES 121840Z 16013G18KT 07/M11 A302 RMK A01 T00711107  RH  027%=      5-min Rain = 0
KLES 121845Z 17012KT 07/M11 A302 RMK A01 T00711106  RH  027%=      5-min Rain = 0
KLES 121850Z 16012G17KT 08/M10 A3019 RMK A01 T00761104  RH  027%=      5-min Rain = 0
KLES 121855Z 16011G17KT 08/M10 A3019 RMK A01 T00761103  RH  027%=      5-min Rain = 0
KLES 121900Z 18013KT 08/M10 A3019 RMK A01 T00781101  RH  027%=      5-min Rain = 0
KLES 121905Z 17013KT 08/M10 A3018 RMK A01 T00801102  RH  027%=      5-min Rain = 0
KLES 121910Z 17013G20KT 08/M10 A3018 RMK A01 T00791101  RH  027%=      5-min Rain = 0
KLES 121915Z 16014G20KT 08/M10 A3017 RMK A01 T00781102  RH  027%=      5-min Rain = 0
KLES 121920Z 17013KT 08/M10 A3016 RMK A01 T00811100  RH  027%=      5-min Rain = 0
KLES 121925Z 17014G19KT 08/M10 A3016 RMK A01 T00831100  RH  027%=      5-min Rain = 0
KLES 121930Z 17012KT 09/M10 A3016 RMK A01 T00851100  RH  026%=      5-min Rain = 0
KLES 121935Z 16012KT 09/M10 A3016 RMK A01 T00881100  RH  026%=      5-min Rain = 0
KLES 121940Z 16012G17KT 09/M10 A3016 RMK A01 T00901097  RH  026%=      5-min Rain = 0
KLES 121945Z 17010KT 09/M10 A3015 RMK A01 T00931096  RH  026%=      5-min Rain = 0
KLES 121950Z 16010KT 09/M10 A3015 RMK A01 T00931098  RH  025%=      5-min Rain = 0
KLES 121955Z 16008G14KT 09/M10 A3015 RMK A01 T00941096  RH  026%=      5-min Rain = 0
KLES 122000Z 16009G17KT 10/M10 A3015 RMK A01 T00961096  RH  025%=      5-min Rain = 0
KLES 122005Z 17011G16KT 10/M10 A3015 RMK A01 T00951098  RH  025%=      5-min Rain = 0
KLES 122010Z 17010G15KT 10/M10 A3015 RMK A01 T00981095  RH  025%=      5-min Rain = 0
KLES 122015Z 17011G17KT 10/M09 A3015 RMK A01 T00991094  RH  025%=      5-min Rain = 0
KLES 122020Z 18011G16KT 10/M09 A3014 RMK A01 T00991093  RH  025%=      5-min Rain = 0
KLES 122025Z 17010KT 10/M09 A3015 RMK A01 T01001092  RH  025%=      5-min Rain = 0
KLES 122030Z 17010KT 10/M09 A3015 RMK A01 T01011091  RH  025%=      5-min Rain = 0
KLES 122035Z 17011KT 10/M09 A3015 RMK A01 T01011092  RH  025%=      5-min Rain = 0
KLES 122040Z 17010G15KT 10/M09 A3014 RMK A01 T01001092  RH  025%=      5-min Rain = 0
KLES 122045Z 18010G15KT 10/M09 A3014 RMK A01 T01021091  RH  025%=      5-min Rain = 0
KLES 122050Z 18012KT 10/M09 A3014 RMK A01 T01031089  RH  025%=      5-min Rain = 0
KLES 122055Z 19009KT 10/M09 A3013 RMK A01 T01041089  RH  025%=      5-min Rain = 0
KLES 122100Z 18010KT 11/M09 A3013 RMK A01 T01071088  RH  025%=      5-min Rain = 0
KLES 122105Z 17008KT 11/M09 A3014 RMK A01 T01091087  RH  025%=      5-min Rain = 0
KLES 122110Z 16009KT 11/M09 A3014 RMK A01 T01091089  RH  024%=      5-min Rain = 0
KLES 122115Z 16009G14KT 11/M09 A3014 RMK A01 T01081089  RH  025%=      5-min Rain = 0
KLES 122120Z 16011KT 11/M09 A3013 RMK A01 T01091089  RH  024%=      5-min Rain = 0
KLES 122125Z 15009G14KT 11/M09 A3013 RMK A01 T01101089  RH  024%=      5-min Rain = 0
KLES 122130Z 16010KT 11/M09 A3013 RMK A01 T01101089  RH  024%=      5-min Rain = 0
KLES 122135Z 17009KT 11/M09 A3014 RMK A01 T01111088  RH  024%=      5-min Rain = 0
KLES 122140Z 15008KT 11/M09 A3013 RMK A01 T01121089  RH  024%=      5-min Rain = 0
KLES 122145Z 17009KT 11/M09 A3013 RMK A01 T01121088  RH  024%=      5-min Rain = 0
KLES 122150Z 16007KT 11/M09 A3013 RMK A01 T01121089  RH  024%=      5-min Rain = 0
KLES 122155Z 15008KT 11/M09 A3014 RMK A01 T01131088  RH  024%=      5-min Rain = 0
KLES 122200Z 15008KT 11/M09 A3014 RMK A01 T01121089  RH  024%=      5-min Rain = 0
KLES 122205Z 15008KT 11/M09 A3013 RMK A01 T01131088  RH  024%=      5-min Rain = 0
KLES 122210Z 15009KT 11/M09 A3013 RMK A01 T01141087  RH  024%=      5-min Rain = 0
KLES 122215Z 14008KT 11/M09 A3013 RMK A01 T01121087  RH  024%=      5-min Rain = 0
KLES 122220Z 13008KT 11/M09 A3013 RMK A01 T01131086  RH  024%=      5-min Rain = 0
KLES 122225Z 15009KT 11/M09 A3013 RMK A01 T01131086  RH  024%=      5-min Rain = 0
KLES 122230Z 14008KT 11/M09 A3013 RMK A01 T01121087  RH  024%=      5-min Rain = 0
KLES 122235Z 15008KT 11/M09 A3013 RMK A01 T01131085  RH  024%=      5-min Rain = 0
KLES 122240Z 14009KT 11/M09 A3013 RMK A01 T01121086  RH  024%=      5-min Rain = 0
KLES 122245Z 13009KT 11/M09 A3013 RMK A01 T01111086  RH  025%=      5-min Rain = 0
KLES 122250Z 14009KT 11/M09 A3013 RMK A01 T01101086  RH  025%=      5-min Rain = 0
KLES 122255Z 13010KT 11/M09 A3013 RMK A01 T01101086  RH  025%=      5-min Rain = 0
KLES 122300Z 13009KT 11/M09 A3013 RMK A01 T01081086  RH  025%=      5-min Rain = 0
KLES 122305Z 13009KT 11/M09 A3013 RMK A01 T01071086  RH  025%=      5-min Rain = 0
KLES 122310Z 13010KT 11/M09 A3013 RMK A01 T01061087  RH  025%=      5-min Rain = 0
KLES 122315Z 12009KT 11/M09 A3013 RMK A01 T01051087  RH  025%=      5-min Rain = 0
KLES 122320Z 13010KT 10/M09 A3013 RMK A01 T01041087  RH  025%=      5-min Rain = 0
KLES 122325Z 14010KT 10/M09 A3013 RMK A01 T01041088  RH  025%=      5-min Rain = 0
KLES 122330Z 13009KT 10/M09 A3013 RMK A01 T01031087  RH  026%=      5-min Rain = 0
KLES 122335Z 12009KT 10/M09 A3013 RMK A01 T01001087  RH  026%=      5-min Rain = 0
KLES 122340Z 13008KT 10/M09 A3013 RMK A01 T00971088  RH  027%=      5-min Rain = 0
KLES 122345Z 13008KT 09/M09 A3013 RMK A01 T00941088  RH  027%=      5-min Rain = 0
KLES 122350Z 12007KT 09/M09 A3013 RMK A01 T00901088  RH  028%=      5-min Rain = 0
KLES 122355Z 12007KT 09/M09 A3014 RMK A01 T00861089  RH  028%=      5-min Rain = 0
KLES 130000Z 12007KT 08/M09 A3014 RMK A01 T00831089  RH  029%=      5-min Rain = 0
KLES 130005Z 13007KT 08/M09 A3014 RMK A01 T00801090  RH  029%=      5-min Rain = 0
KLES 130010Z 12007KT 08/M09 A3014 RMK A01 T00771090  RH  030%=      5-min Rain = 0
KLES 130015Z 12006KT 07/M09 A3015 RMK A01 T00731091  RH  030%=      5-min Rain = 0
KLES 130020Z 11006KT 07/M09 A3014 RMK A01 T00701091  RH  031%=      5-min Rain = 0
KLES 130025Z 11006KT 07/M09 A3015 RMK A01 T00681092  RH  031%=      5-min Rain = 0
KLES 130030Z 12007KT 07/M09 A3015 RMK A01 T00671093  RH  031%=      5-min Rain = 0
KLES 130035Z 11006KT 07/M09 A3015 RMK A01 T00651093  RH  032%=      5-min Rain = 0
KLES 130040Z 11005KT 06/M09 A3015 RMK A01 T00631093  RH  032%=      5-min Rain = 0
KLES 130045Z 11006KT 06/M09 A3015 RMK A01 T00621092  RH  033%=      5-min Rain = 0
KLES 130050Z 11006KT 06/M09 A3015 RMK A01 T00591093  RH  033%=      5-min Rain = 0
KLES 130055Z 11006KT 06/M09 A3016 RMK A01 T00561093  RH  034%=      5-min Rain = 0
KLES 130100Z 11006KT 06/M09 A3016 RMK A01 T00551093  RH  034%=      5-min Rain = 0
KLES 130105Z 11006KT 05/M09 A3016 RMK A01 T00531093  RH  034%=      5-min Rain = 0
KLES 130110Z 10005KT 05/M09 A3016 RMK A01 T00481093  RH  036%=      5-min Rain = 0
KLES 130115Z 10006KT 05/M09 A3017 RMK A01 T00451092  RH  037%=      5-min Rain = 0
KLES 130120Z 11007KT 05/M09 A3017 RMK A01 T00491091  RH  036%=      5-min Rain = 0
KLES 130125Z 11007KT 06/M09 A3017 RMK A01 T00561093  RH  034%=      5-min Rain = 0
KLES 130130Z 10008KT 06/M09 A3018 RMK A01 T00571093  RH  033%=      5-min Rain = 0
KLES 130135Z 10007KT 06/M09 A3018 RMK A01 T00561093  RH  034%=      5-min Rain = 0
KLES 130140Z 10007KT 05/M09 A3019 RMK A01 T00541094  RH  034%=      5-min Rain = 0
KLES 130145Z 10008KT 05/M09 A3019 RMK A01 T00491094  RH  035%=      5-min Rain = 0
KLES 130150Z 10009KT 05/M09 A3019 RMK A01 T00471094  RH  036%=      5-min Rain = 0
KLES 130155Z 10009KT 05/M10 A3019 RMK A01 T00481097  RH  035%=      5-min Rain = 0
KLES 130200Z 09009KT 05/M10 A3019 RMK A01 T00491098  RH  034%=      5-min Rain = 0
KLES 130205Z 09010KT 05/M10 A302 RMK A01 T00511099  RH  033%=      5-min Rain = 0
KLES 130210Z 09010KT 05/M10 A302 RMK A01 T00501100  RH  033%=      5-min Rain = 0
KLES 130215Z 09010KT 05/M10 A302 RMK A01 T00511102  RH  032%=      5-min Rain = 0
KLES 130220Z 09011KT 05/M11 A3021 RMK A01 T00521105  RH  032%=      5-min Rain = 0
KLES 130225Z 09011KT 05/M11 A3021 RMK A01 T00511106  RH  031%=      5-min Rain = 0
KLES 130230Z 09010KT 05/M11 A3022 RMK A01 T00501107  RH  031%=      5-min Rain = 0
KLES 130235Z 10012KT 05/M11 A3022 RMK A01 T00491108  RH  031%=      5-min Rain = 0
KLES 130240Z 10011G16KT 05/M11 A3022 RMK A01 T00511108  RH  031%=      5-min Rain = 0
KLES 130245Z 10011KT 05/M11 A3023 RMK A01 T00491109  RH  031%=      5-min Rain = 0
KLES 130250Z 10010KT 05/M11 A3024 RMK A01 T00481109  RH  031%=      5-min Rain = 0
KLES 130255Z 10010KT 05/M11 A3024 RMK A01 T00461109  RH  032%=      5-min Rain = 0
KLES 130300Z 09011KT 04/M11 A3024 RMK A01 T00431110  RH  032%=      5-min Rain = 0
KLES 130305Z 09011KT 04/M11 A3025 RMK A01 T00441110  RH  032%=      5-min Rain = 0
KLES 130310Z 08009KT 04/M11 A3025 RMK A01 T00421110  RH  033%=      5-min Rain = 0
KLES 130315Z 08009KT 04/M11 A3025 RMK A01 T00361111  RH  034%=      5-min Rain = 0
KLES 130320Z 08009KT 03/M11 A3025 RMK A01 T00311112  RH  035%=      5-min Rain = 0
KLES 130325Z 08009KT 03/M11 A3026 RMK A01 T00281113  RH  035%=      5-min Rain = 0
KLES 130330Z 08010KT 03/M11 A3026 RMK A01 T00271114  RH  035%=      5-min Rain = 0
KLES 130335Z 08009KT 03/M12 A3026 RMK A01 T00251115  RH  035%=      5-min Rain = 0
KLES 130340Z 07008KT 02/M11 A3027 RMK A01 T00231114  RH  036%=      5-min Rain = 0
KLES 130345Z 07010G16KT 02/M11 A3028 RMK A01 T00211114  RH  036%=      5-min Rain = 0
KLES 130350Z 07010G15KT 02/M12 A3028 RMK A01 T00201116  RH  036%=      5-min Rain = 0
KLES 130355Z 07010KT 02/M12 A3029 RMK A01 T00201116  RH  036%=      5-min Rain = 0
KLES 130400Z 07009G14KT 02/M12 A3029 RMK A01 T00191117  RH  036%=      5-min Rain = 0
KLES 130405Z 07010G15KT 02/M12 A303 RMK A01 T00181117  RH  036%=      5-min Rain = 0
KLES 130410Z 07011G16KT 02/M12 A3031 RMK A01 T00171118  RH  036%=      5-min Rain = 0
KLES 130415Z 08010G15KT 02/M12 A3031 RMK A01 T00161120  RH  036%=      5-min Rain = 0
KLES 130420Z 07010G16KT 02/M12 A3031 RMK A01 T00161121  RH  036%=      5-min Rain = 0
KLES 130425Z 07009KT 01/M12 A3031 RMK A01 T00141122  RH  036%=      5-min Rain = 0
KLES 130430Z 07010G16KT 01/M12 A3032 RMK A01 T00121122  RH  036%=      5-min Rain = 0
KLES 130435Z 07011G16KT 01/M12 A3032 RMK A01 T00111122  RH  037%=      5-min Rain = 0
KLES 130440Z 07011G16KT 01/M12 A3032 RMK A01 T00101122  RH  037%=      5-min Rain = 0
KLES 130445Z 06010KT 01/M12 A3033 RMK A01 T00101123  RH  037%=      5-min Rain = 0
KLES 130450Z 07010KT 01/M12 A3033 RMK A01 T00091122  RH  037%=      5-min Rain = 0
KLES 130455Z 06010KT 01/M12 A3034 RMK A01 T00091123  RH  037%=      5-min Rain = 0
KLES 130500Z 06009KT 01/M12 A3034 RMK A01 T00091123  RH  037%=      5-min Rain = 0
KLES 130505Z 06010KT 01/M12 A3034 RMK A01 T00081123  RH  037%=      5-min Rain = 0
KLES 130510Z 06009G14KT 01/M12 A3035 RMK A01 T00071123  RH  037%=      5-min Rain = 0
KLES 130515Z 06009KT 01/M12 A3035 RMK A01 T00061123  RH  038%=      5-min Rain = 0
KLES 130520Z 06008KT 01/M12 A3035 RMK A01 T00051123  RH  038%=      5-min Rain = 0
KLES 130525Z 06009KT 00/M12 A3035 RMK A01 T00031123  RH  039%=      5-min Rain = 0
KLES 130530Z 06010G15KT 00/M12 A3035 RMK A01 T00021123  RH  039%=      5-min Rain = 0
KLES 130535Z 06010G15KT 00/M12 A3036 RMK A01 T00021123  RH  039%=      5-min Rain = 0
KLES 130540Z 05012G17KT 00/M12 A3036 RMK A01 T00011123  RH  039%=      5-min Rain = 0
KLES 130545Z 05012KT 00/12 A3037 RMK A01 T00000-122  RH  040%=      5-min Rain = 0
KLES 130550Z 05011KT M00/M12 A3037 RMK A01 T10021122  RH  040%=      5-min Rain = 0
KLES 130555Z 05011G16KT M00/M12 A3038 RMK A01 T10031121  RH  041%=      5-min Rain = 0

Page generated in 0.0089 seconds.